Time;durP1;ratioP1;P1;durP2;ratioP2;P2;SDS_P1;SDS_P2;PMS_P1;PMS_P2;Temp;Humidity;BMP_temperature;BMP_pressure;BME280_temperature;BME280_humidity;BME280_pressure;Samples;Min_cycle;Max_cycle;Signal;HPM_P1;HPM_P2
2023/06/29 00:00:29;;;;;;;0.10;0.10;;;;;;;17.76;58.44;99917.25;4477445;31;32362;-84
2023/06/29 00:02:57;;;;;;;0.30;0.30;;;;;;;17.81;58.40;99910.59;4463847;31;31703;-85
2023/06/29 00:05:25;;;;;;;6.32;0.45;;;;;;;17.87;58.37;99911.97;4456985;31;32718;-84
2023/06/29 00:07:52;;;;;;;1.85;0.57;;;;;;;17.73;58.64;99904.97;4475153;31;33924;-85
2023/06/29 00:10:25;;;;;;;0.10;0.10;;;;;;;17.78;58.59;99909.97;4463165;31;33848;-86
2023/06/29 00:12:52;;;;;;;0.08;0.08;;;;;;;17.54;59.14;99910.72;4464539;31;31819;-87
2023/06/29 00:15:20;;;;;;;0.00;0.00;;;;;;;17.48;59.53;99915.66;4474459;31;33400;-86
2023/06/29 00:17:48;;;;;;;0.20;0.20;;;;;;;17.51;59.33;99910.91;4462456;31;34782;-87
2023/06/29 00:20:15;;;;;;;0.10;0.10;;;;;;;17.54;59.31;99910.72;4476930;31;33817;-87
2023/06/29 00:22:47;;;;;;;0.08;0.08;;;;;;;17.44;59.49;99914.16;4465979;31;31718;-86
2023/06/29 00:25:17;;;;;;;0.95;0.70;;;;;;;17.37;59.77;99916.38;4479292;31;33547;-86
2023/06/29 00:27:45;;;;;;;0.20;0.10;;;;;;;17.53;59.35;99910.84;4468322;31;34685;-87
2023/06/29 00:30:13;;;;;;;0.10;0.10;;;;;;;17.53;59.11;99911.69;4468880;31;34102;-87
2023/06/29 00:32:40;;;;;;;1.55;0.75;;;;;;;17.37;59.51;99919.03;4476033;31;34034;-86
2023/06/29 00:35:12;;;;;;;0.65;0.65;;;;;;;17.46;59.35;99915.72;4461440;31;32689;-86
2023/06/29 00:37:42;;;;;;;0.00;0.00;;;;;;;17.59;58.75;99908.56;4463380;31;34701;-86
2023/06/29 00:40:10;;;;;;;0.15;0.15;;;;;;;17.34;59.50;99916.63;4452505;31;33961;-87
2023/06/29 00:42:38;;;;;;;0.62;0.10;;;;;;;17.44;59.18;99909.66;4479036;31;34226;-87
2023/06/29 00:45:06;;;;;;;0.10;0.10;;;;;;;17.52;58.82;99909.09;4465201;31;34544;-87
2023/06/29 00:47:36;;;;;;;0.10;0.10;;;;;;;17.56;58.49;99913.28;4463362;31;33625;-87
2023/06/29 00:50:05;;;;;;;0.22;0.22;;;;;;;17.55;58.50;99907.09;4437237;31;33164;-88
2023/06/29 00:52:33;;;;;;;0.43;0.43;;;;;;;17.34;59.30;99903.28;4462392;31;32948;-87
2023/06/29 00:55:01;;;;;;;0.85;0.57;;;;;;;17.57;58.62;99904.31;4450479;31;32781;-87
2023/06/29 00:57:29;;;;;;;0.20;0.20;;;;;;;17.40;58.83;99903.69;4461452;31;34655;-87
2023/06/29 01:00:00;;;;;;;0.00;0.00;;;;;;;17.32;59.31;99899.84;4455106;31;32416;-88
2023/06/29 01:02:35;;;;;;;0.37;0.37;;;;;;;17.34;59.16;99898.78;4474586;31;33555;-87
2023/06/29 01:05:04;;;;;;;0.30;0.30;;;;;;;17.27;59.82;99901.97;4465428;31;32672;-87
2023/06/29 01:07:37;;;;;;;1.05;0.95;;;;;;;17.24;59.81;99903.06;4465293;31;33943;-87
2023/06/29 01:10:08;;;;;;;0.08;0.08;;;;;;;17.17;60.16;99903.56;4465317;31;33280;-87
2023/06/29 01:12:36;;;;;;;0.00;0.00;;;;;;;17.24;59.76;99905.72;4461062;31;31575;-87
2023/06/29 01:15:05;;;;;;;0.10;0.10;;;;;;;17.10;60.18;99896.00;4474299;31;33769;-88
2023/06/29 01:17:34;;;;;;;0.20;0.20;;;;;;;17.04;60.45;99896.44;4461162;31;32696;-87
2023/06/29 01:20:02;;;;;;;1.37;0.73;;;;;;;16.97;60.64;99895.13;4463460;31;32039;-86
2023/06/29 01:22:35;;;;;;;0.08;0.05;;;;;;;17.09;60.25;99890.75;4463992;31;33012;-86
2023/06/29 01:25:04;;;;;;;0.10;0.10;;;;;;;17.04;60.53;99891.09;4478444;31;32543;-87
2023/06/29 01:27:33;;;;;;;0.47;0.47;;;;;;;17.22;59.77;99896.09;4464399;31;35020;-86
2023/06/29 01:30:01;;;;;;;0.00;0.00;;;;;;;16.98;60.55;99896.84;4449643;31;33060;-86
2023/06/29 01:32:35;;;;;;;0.60;0.60;;;;;;;17.10;60.18;99896.00;4458997;31;34179;-87
2023/06/29 01:35:04;;;;;;;0.43;0.35;;;;;;;17.15;59.75;99893.87;4460953;31;32445;-85
2023/06/29 01:37:51;;;;;;;0.00;0.00;;;;;;;17.09;60.55;99899.66;4475083;31;33905;-85
2023/06/29 01:40:22;;;;;;;0.22;0.22;;;;;;;17.17;60.53;99892.91;4489235;31;33928;-85
2023/06/29 01:42:50;;;;;;;0.35;0.35;;;;;;;17.45;59.24;99891.81;4463497;31;32280;-86
2023/06/29 01:45:20;;;;;;;0.05;0.05;;;;;;;17.19;60.54;99893.66;4463561;31;33807;-86
2023/06/29 01:47:47;;;;;;;2.05;0.90;;;;;;;17.24;60.42;99888.88;4453305;31;32826;-84
2023/06/29 01:50:17;;;;;;;0.10;0.10;;;;;;;17.26;60.38;99889.59;4465645;31;33272;-84
2023/06/29 01:52:44;;;;;;;1.05;0.32;;;;;;;17.35;60.07;99881.78;4463081;31;33604;-85
2023/06/29 01:55:14;;;;;;;0.00;0.00;;;;;;;17.25;60.53;99887.91;4462689;31;32216;-84
2023/06/29 01:57:42;;;;;;;0.43;0.40;;;;;;;17.49;59.55;99886.16;4463452;31;33249;-83
2023/06/29 02:00:10;;;;;;;0.45;0.20;;;;;;;17.67;58.95;99879.50;4474969;31;33554;-83
2023/06/29 02:02:40;;;;;;;0.13;0.13;;;;;;;17.43;59.70;99875.94;4475104;31;33201;-84
2023/06/29 02:05:08;;;;;;;0.47;0.47;;;;;;;17.22;60.53;99882.75;4476347;31;32784;-84
2023/06/29 02:07:37;;;;;;;0.10;0.10;;;;;;;17.25;60.56;99887.91;4488477;31;33901;-83
2023/06/29 02:10:05;;;;;;;0.15;0.15;;;;;;;17.35;60.42;99887.13;4463759;31;34511;-85
2023/06/29 02:12:39;;;;;;;0.28;0.28;;;;;;;17.50;59.98;99885.19;4453473;31;32220;-85
2023/06/29 02:15:08;;;;;;;2.12;1.05;;;;;;;17.57;59.84;99883.81;4462590;31;32411;-85
2023/06/29 02:17:36;;;;;;;0.13;0.08;;;;;;;17.55;60.13;99884.88;4471940;31;33590;-85
2023/06/29 02:20:09;;;;;;;0.10;0.10;;;;;;;17.78;59.21;99881.44;4456498;31;32151;-85
2023/06/29 02:22:37;;;;;;;0.28;0.28;;;;;;;17.76;59.46;99887.88;4451207;31;32215;-84
2023/06/29 02:25:07;;;;;;;1.77;0.85;;;;;;;17.87;59.12;99880.78;4461190;31;33794;-83
2023/06/29 02:27:37;;;;;;;0.13;0.10;;;;;;;17.81;59.59;99885.72;4476788;31;32490;-85
2023/06/29 02:30:06;;;;;;;2.92;0.90;;;;;;;17.89;59.55;99880.66;4463071;31;32794;-84
2023/06/29 02:32:34;;;;;;;3.58;0.40;;;;;;;18.06;58.89;99874.94;4475346;31;33975;-85
2023/06/29 02:35:02;;;;;;;0.37;0.37;;;;;;;18.19;58.06;99874.06;4461347;31;33787;-85
2023/06/29 02:37:30;;;;;;;0.00;0.00;;;;;;;18.07;58.17;99876.63;4460528;31;33144;-85
2023/06/29 02:39:58;;;;;;;0.17;0.17;;;;;;;18.22;57.52;99882.66;4462097;31;32342;-85
2023/06/29 02:42:27;;;;;;;0.52;0.52;;;;;;;18.49;56.71;99877.09;4477206;31;33096;-85
2023/06/29 02:44:54;;;;;;;4.18;1.27;;;;;;;18.60;56.39;99885.16;4474881;31;33842;-85
2023/06/29 02:47:22;;;;;;;0.22;0.22;;;;;;;18.26;57.71;99881.47;4472619;31;34404;-86
2023/06/29 02:49:50;;;;;;;0.28;0.28;;;;;;;18.25;58.12;99885.13;4473581;31;34062;-87
2023/06/29 02:52:18;;;;;;;0.25;0.10;;;;;;;18.22;58.24;99884.50;4456677;31;33825;-86
2023/06/29 02:54:46;;;;;;;1.35;0.10;;;;;;;18.20;58.31;99883.75;4474174;31;33922;-86
2023/06/29 02:57:16;;;;;;;0.30;0.30;;;;;;;18.23;58.13;99880.84;4460960;31;33032;-86
2023/06/29 02:59:44;;;;;;;0.00;0.00;;;;;;;17.97;58.86;99880.97;4443180;31;33052;-86
2023/06/29 03:02:12;;;;;;;0.17;0.17;;;;;;;18.01;58.58;99887.78;4473963;31;33437;-87
2023/06/29 03:04:40;;;;;;;0.00;0.00;;;;;;;18.15;58.32;99895.66;4460917;31;33175;-84
2023/06/29 03:07:08;;;;;;;8.88;1.10;;;;;;;18.05;58.63;99886.59;4492141;31;34410;-84
2023/06/29 03:09:36;;;;;;;0.30;0.30;;;;;;;18.23;58.08;99891.53;4473289;31;33578;-85
2023/06/29 03:12:04;;;;;;;0.52;0.47;;;;;;;18.31;57.79;99890.00;4475503;31;33423;-85
2023/06/29 03:14:31;;;;;;;0.20;0.20;;;;;;;18.45;57.27;99888.97;4462450;31;31972;-85
2023/06/29 03:16:59;;;;;;;0.25;0.25;;;;;;;18.43;57.61;99885.59;4462349;31;32547;-85
2023/06/29 03:19:27;;;;;;;0.25;0.25;;;;;;;18.40;57.76;99888.47;4474918;31;33561;-86
2023/06/29 03:21:55;;;;;;;0.75;0.75;;;;;;;18.61;56.97;99886.00;4478436;31;32528;-86
2023/06/29 03:24:22;;;;;;;0.30;0.30;;;;;;;18.52;56.64;99884.91;4470556;31;32913;-86
2023/06/29 03:26:50;;;;;;;0.47;0.47;;;;;;;18.56;56.53;99883.69;4476480;31;33581;-87
2023/06/29 03:29:20;;;;;;;0.05;0.00;;;;;;;18.52;56.62;99884.03;4476594;31;33615;-87
2023/06/29 03:31:47;;;;;;;1.10;1.00;;;;;;;18.60;56.12;99889.66;4475340;31;34023;-86
2023/06/29 03:34:15;;;;;;;0.20;0.20;;;;;;;18.32;56.91;99891.72;4474481;31;33187;-86
2023/06/29 03:36:43;;;;;;;0.15;0.15;;;;;;;18.66;56.50;99894.56;4478076;31;33329;-87
2023/06/29 03:39:10;;;;;;;0.45;0.45;;;;;;;18.93;55.09;99896.97;4448931;32;33796;-86
2023/06/29 03:41:38;;;;;;;0.10;0.10;;;;;;;18.91;54.52;99893.56;4474717;31;34047;-86
2023/06/29 03:44:05;;;;;;;0.90;0.32;;;;;;;18.96;54.58;99896.72;4478482;31;33546;-85
2023/06/29 03:46:33;;;;;;;0.13;0.13;;;;;;;19.29;55.95;99890.59;4477794;31;34793;-85
2023/06/29 03:49:00;;;;;;;0.40;0.40;;;;;;;19.19;54.78;99884.25;4464671;31;33788;-86
2023/06/29 03:51:28;;;;;;;0.47;0.47;;;;;;;19.29;53.94;99887.06;4465441;31;31780;-86
2023/06/29 03:53:56;;;;;;;1.15;0.40;;;;;;;19.39;52.97;99885.34;4459893;31;32791;-86
2023/06/29 03:56:23;;;;;;;0.05;0.05;;;;;;;19.64;52.73;99886.97;4474214;31;32866;-86
2023/06/29 03:58:52;;;;;;;0.00;0.00;;;;;;;19.71;52.86;99887.34;4461238;32;33831;-86
2023/06/29 04:01:19;;;;;;;0.80;0.80;;;;;;;19.88;52.53;99884.13;4471428;31;33404;-87
2023/06/29 04:03:47;;;;;;;0.00;0.00;;;;;;;19.89;52.15;99892.06;4489971;31;33810;-86
2023/06/29 04:06:15;;;;;;;0.43;0.35;;;;;;;20.10;50.78;99889.47;4478057;31;33967;-86
2023/06/29 04:08:43;;;;;;;0.43;0.35;;;;;;;20.23;50.43;99891.16;4461747;31;35062;-86
2023/06/29 04:11:12;;;;;;;0.20;0.20;;;;;;;20.13;50.54;99893.69;4447246;31;31959;-85
2023/06/29 04:13:39;;;;;;;0.40;0.40;;;;;;;20.30;50.26;99885.13;4470615;31;34768;-85
2023/06/29 04:16:07;;;;;;;2.37;0.88;;;;;;;20.33;50.07;99884.03;4473912;31;33201;-85
2023/06/29 04:18:35;;;;;;;0.10;0.10;;;;;;;20.40;49.32;99879.84;4475304;31;34645;-85
2023/06/29 04:21:03;;;;;;;0.20;0.17;;;;;;;20.41;49.38;99884.22;4476181;31;33957;-85
2023/06/29 04:23:30;;;;;;;0.08;0.08;;;;;;;20.36;49.41;99883.75;4475222;31;35283;-86
2023/06/29 04:26:02;;;;;;;0.52;0.52;;;;;;;20.60;48.14;99880.91;4477413;31;32888;-86
2023/06/29 04:28:34;;;;;;;;;;;;;;;20.64;48.43;99883.19;4477406;31;33857;-87
2023/06/29 04:31:02;;;;;;;0.00;0.00;;;;;;;20.89;48.64;99875.78;4493444;31;33449;-87
2023/06/29 04:33:30;;;;;;;0.30;0.30;;;;;;;20.74;47.59;99874.38;4462075;31;33712;-87
2023/06/29 04:35:57;;;;;;;0.20;0.10;;;;;;;20.99;47.37;99882.03;4463482;31;33331;-86
2023/06/29 04:38:27;;;;;;;0.15;0.15;;;;;;;21.26;47.29;99886.00;4454790;31;33914;-86
2023/06/29 04:41:04;;;;;;;0.00;0.00;;;;;;;21.17;46.95;99885.84;4462820;31;32854;-86
2023/06/29 04:43:33;;;;;;;2.92;1.10;;;;;;;21.35;46.82;99880.72;4474446;31;33851;-86
2023/06/29 04:46:00;;;;;;;0.22;0.22;;;;;;;21.60;45.93;99876.75;4465982;31;33380;-86
2023/06/29 04:48:36;;;;;;;1.20;1.15;;;;;;;21.20;46.98;99880.19;4489649;31;34018;-85
2023/06/29 04:51:05;;;;;;;0.85;0.45;;;;;;;21.51;45.75;99874.88;4464930;31;31967;-85
2023/06/29 04:53:34;;;;;;;0.93;0.85;;;;;;;21.31;46.05;99881.13;4477992;31;33559;-88
2023/06/29 04:56:02;;;;;;;0.68;0.68;;;;;;;21.25;45.89;99870.87;4474112;31;32635;-89
2023/06/29 04:58:30;;;;;;;0.93;0.20;;;;;;;21.06;46.33;99871.63;4464792;31;33108;-89
2023/06/29 05:00:58;;;;;;;0.52;0.52;;;;;;;21.26;46.18;99872.56;4463129;31;34226;-89
2023/06/29 05:03:26;;;;;;;0.20;0.20;;;;;;;20.89;45.51;99886.50;4463085;31;33282;-88
2023/06/29 05:05:54;;;;;;;0.03;0.03;;;;;;;21.16;45.69;99878.75;4460787;31;33417;-88
2023/06/29 05:08:22;;;;;;;0.20;0.20;;;;;;;21.33;46.18;99876.47;4443437;31;32400;-88
2023/06/29 05:10:50;;;;;;;0.20;0.20;;;;;;;21.46;45.40;99874.44;4463644;31;33731;-89
2023/06/29 05:13:18;;;;;;;0.10;0.10;;;;;;;21.44;45.58;99865.63;4451337;31;33625;-88
2023/06/29 05:15:47;;;;;;;0.20;0.20;;;;;;;21.72;45.04;99867.56;4451870;31;33449;-88
2023/06/29 05:18:15;;;;;;;1.37;0.43;;;;;;;21.61;45.45;99856.09;4481356;31;33549;-87
2023/06/29 05:20:43;;;;;;;1.95;0.77;;;;;;;21.42;46.46;99867.62;4467598;31;33359;-87
2023/06/29 05:23:11;;;;;;;0.13;0.13;;;;;;;21.36;46.87;99868.12;4441935;31;32921;-87
2023/06/29 05:25:40;;;;;;;0.20;0.20;;;;;;;21.53;45.91;99864.81;4455319;31;33990;-85
2023/06/29 05:28:09;;;;;;;0.20;0.20;;;;;;;21.51;46.67;99866.81;4457133;31;255738;-85
2023/06/29 05:30:36;;;;;;;0.47;0.47;;;;;;;21.59;46.45;99864.28;4457130;31;32407;-85
2023/06/29 05:33:04;;;;;;;0.20;0.20;;;;;;;21.70;46.88;99872.25;4457740;31;33244;-85
2023/06/29 05:35:34;;;;;;;1.08;0.55;;;;;;;21.63;46.25;99870.22;4453920;31;34417;-85
2023/06/29 05:38:02;;;;;;;1.02;0.93;;;;;;;21.93;45.29;99864.81;4455712;31;33449;-85
2023/06/29 05:40:29;;;;;;;0.10;0.10;;;;;;;21.67;45.96;99877.03;4468462;31;31163;-85
2023/06/29 05:42:57;;;;;;;0.10;0.10;;;;;;;21.93;46.00;99866.63;4471199;31;33223;-85
2023/06/29 05:45:25;;;;;;;0.20;0.20;;;;;;;22.03;46.35;99877.41;4469052;31;33910;-85
2023/06/29 05:47:54;;;;;;;3.33;0.22;;;;;;;21.90;46.95;99870.47;4465125;31;35661;-85
2023/06/29 05:50:22;;;;;;;0.30;0.30;;;;;;;22.17;45.01;99875.22;4477194;31;31089;-85
2023/06/29 05:52:50;;;;;;;0.03;0.03;;;;;;;22.34;45.48;99880.91;4459290;31;33147;-85
2023/06/29 05:55:19;;;;;;;0.28;0.28;;;;;;;22.29;44.82;99885.84;4465616;31;32615;-85
2023/06/29 05:57:47;;;;;;;0.70;0.43;;;;;;;22.22;45.71;99878.34;4453514;31;34931;-86
2023/06/29 06:00:16;;;;;;;0.68;0.55;;;;;;;22.73;45.60;99885.28;4453969;31;35477;-85
2023/06/29 06:02:44;;;;;;;0.45;0.43;;;;;;;22.16;45.28;99884.25;4461510;31;32411;-84
2023/06/29 06:05:12;;;;;;;0.40;0.28;;;;;;;22.64;45.11;99877.22;4454808;31;32164;-85
2023/06/29 06:07:40;;;;;;;0.25;0.25;;;;;;;22.72;43.79;99880.91;4466021;31;32037;-85
2023/06/29 06:10:08;;;;;;;0.35;0.30;;;;;;;22.85;43.27;99879.75;4467052;31;33582;-85
2023/06/29 06:12:36;;;;;;;0.10;0.10;;;;;;;22.76;43.55;99884.16;4451297;31;33257;-85
2023/06/29 06:15:05;;;;;;;1.10;0.32;;;;;;;22.74;43.37;99878.06;4463635;31;33893;-84
2023/06/29 06:17:33;;;;;;;0.32;0.32;;;;;;;22.67;43.47;99879.63;4451530;32;32249;-84
2023/06/29 06:20:01;;;;;;;0.47;0.47;;;;;;;23.09;43.69;99880.16;4462293;31;34184;-84
2023/06/29 06:22:28;;;;;;;1.33;0.30;;;;;;;23.06;43.41;99883.16;4463211;31;33853;-85
2023/06/29 06:24:56;;;;;;;3.30;1.65;;;;;;;23.27;43.43;99874.03;4451841;31;33710;-84
2023/06/29 06:27:24;;;;;;;1.77;0.95;;;;;;;23.57;42.43;99876.47;4451251;31;33174;-85
2023/06/29 06:29:51;;;;;;;0.52;0.40;;;;;;;23.52;43.47;99873.38;4452745;31;32565;-86
2023/06/29 06:32:24;;;;;;;0.75;0.22;;;;;;;23.88;42.21;99874.38;4453327;31;32792;-86
2023/06/29 06:34:52;;;;;;;1.33;1.15;;;;;;;23.19;42.68;99869.38;4469129;31;35173;-86
2023/06/29 06:37:19;;;;;;;0.20;0.20;;;;;;;23.11;43.66;99880.88;4465024;31;33672;-84
2023/06/29 06:39:47;;;;;;;0.85;0.85;;;;;;;23.69;42.49;99877.13;4452987;31;32889;-85
2023/06/29 06:42:15;;;;;;;0.20;0.20;;;;;;;23.86;42.74;99875.50;4450214;32;32106;-85
2023/06/29 06:44:54;;;;;;;2.10;0.40;;;;;;;24.05;42.39;99859.22;4469209;31;34325;-87
2023/06/29 06:47:22;;;;;;;0.30;0.30;;;;;;;23.85;42.75;99865.72;4472114;31;34583;-84
2023/06/29 06:49:49;;;;;;;0.20;0.17;;;;;;;24.31;42.81;99858.44;4482231;31;33777;-85
2023/06/29 06:52:18;;;;;;;0.45;0.35;;;;;;;24.71;40.42;99856.16;4448915;32;32249;-84
2023/06/29 06:54:46;;;;;;;1.45;0.20;;;;;;;24.60;40.91;99864.50;4458787;31;33568;-84
2023/06/29 06:57:13;;;;;;;0.25;0.25;;;;;;;24.56;41.85;99860.44;4456089;31;32505;-84
2023/06/29 06:59:41;;;;;;;0.00;0.00;;;;;;;24.28;42.28;99871.25;4475825;31;33297;-84
2023/06/29 07:02:09;;;;;;;6.00;1.02;;;;;;;24.41;41.42;99873.63;4469234;31;34373;-84
2023/06/29 07:04:37;;;;;;;0.00;0.00;;;;;;;24.61;41.75;99871.59;4478980;31;34818;-84
2023/06/29 07:07:06;;;;;;;0.13;0.13;;;;;;;24.77;40.77;99868.19;4470103;31;34699;-84
2023/06/29 07:09:34;;;;;;;0.40;0.30;;;;;;;24.27;41.30;99868.72;4471734;31;34029;-84
2023/06/29 07:12:06;;;;;;;0.32;0.32;;;;;;;24.44;41.96;99867.06;4460616;31;33118;-84
2023/06/29 07:14:34;;;;;;;0.15;0.10;;;;;;;24.58;41.21;99866.50;4475317;31;33174;-85
2023/06/29 07:17:01;;;;;;;0.32;0.30;;;;;;;24.41;41.79;99870.91;4471018;31;34374;-84
2023/06/29 07:19:29;;;;;;;0.45;0.20;;;;;;;24.61;41.13;99868.91;4471783;31;33086;-84
2023/06/29 07:22:00;;;;;;;0.55;0.32;;;;;;;24.75;41.19;99865.66;4473789;32;34316;-84
2023/06/29 07:24:30;;;;;;;0.20;0.17;;;;;;;24.87;41.03;99860.84;4474923;31;33878;-85
2023/06/29 07:26:58;;;;;;;0.65;0.47;;;;;;;25.00;40.73;99871.22;4458828;31;33294;-85
2023/06/29 07:29:26;;;;;;;0.52;0.20;;;;;;;24.62;41.46;99872.44;4460470;31;32223;-84
2023/06/29 07:31:54;;;;;;;0.20;0.20;;;;;;;25.18;40.04;99869.38;4449802;31;32958;-85
2023/06/29 07:34:23;;;;;;;0.13;0.13;;;;;;;25.26;40.79;99864.03;4466104;31;34059;-85
2023/06/29 07:36:52;;;;;;;0.15;0.15;;;;;;;25.25;40.65;99870.41;4489247;31;33475;-85
2023/06/29 07:39:19;;;;;;;0.15;0.15;;;;;;;25.54;39.65;99870.09;4472740;31;33402;-85
2023/06/29 07:41:48;;;;;;;0.32;0.28;;;;;;;25.54;39.75;99875.50;4464256;31;32206;-85
2023/06/29 07:44:16;;;;;;;0.25;0.25;;;;;;;25.12;40.38;99877.28;4457464;31;35186;-85
2023/06/29 07:46:43;;;;;;;0.65;0.57;;;;;;;25.51;40.03;99864.16;4471567;31;33794;-85
2023/06/29 07:49:11;;;;;;;0.30;0.30;;;;;;;25.38;39.44;99866.44;4471186;31;32756;-86
2023/06/29 07:51:38;;;;;;;0.52;0.52;;;;;;;25.83;38.89;99865.31;4452555;31;32544;-85
2023/06/29 07:54:08;;;;;;;0.10;0.10;;;;;;;25.45;39.74;99865.66;4455896;31;33443;-85
2023/06/29 07:56:36;;;;;;;0.47;0.30;;;;;;;26.21;39.39;99859.34;4472108;31;33550;-85
2023/06/29 07:59:07;;;;;;;0.08;0.08;;;;;;;26.15;38.60;99857.28;4469011;31;31693;-85
2023/06/29 08:01:36;;;;;;;0.22;0.22;;;;;;;26.29;38.03;99864.75;4459305;31;34509;-86
2023/06/29 08:04:06;;;;;;;6.15;0.90;;;;;;;26.14;38.02;99861.03;4465704;31;32254;-85
2023/06/29 08:06:35;;;;;;;0.00;0.00;;;;;;;25.99;39.30;99868.94;4469058;31;33392;-85
2023/06/29 08:09:06;;;;;;;;;;;;;;;25.94;39.75;99865.03;4461172;31;31972;-85
2023/06/29 08:11:33;;;;;;;0.10;0.10;;;;;;;26.00;39.02;99865.22;4471026;31;33753;-86
2023/06/29 08:14:01;;;;;;;1.08;0.65;;;;;;;25.94;39.52;99860.47;4444492;31;32680;-86
2023/06/29 08:16:29;;;;;;;0.10;0.10;;;;;;;25.79;39.56;99867.53;4465504;31;32085;-85
2023/06/29 08:18:58;;;;;;;0.30;0.28;;;;;;;26.28;39.67;99868.50;4459424;31;33161;-85
2023/06/29 08:21:30;;;;;;;0.30;0.30;;;;;;;26.13;38.89;99864.75;4471165;31;33776;-86
2023/06/29 08:23:58;;;;;;;0.00;0.00;;;;;;;26.48;38.59;99873.63;4458990;31;32596;-85
2023/06/29 08:26:25;;;;;;;2.00;0.22;;;;;;;26.40;39.49;99870.91;4454153;31;31855;-85
2023/06/29 08:28:53;;;;;;;0.30;0.20;;;;;;;26.85;37.09;99875.00;4483753;31;32705;-85
2023/06/29 08:31:21;;;;;;;7.87;1.65;;;;;;;26.04;39.79;99871.16;4463757;32;33488;-85
2023/06/29 08:33:49;;;;;;;0.32;0.32;;;;;;;26.64;38.08;99872.81;4456850;31;34399;-85
2023/06/29 08:36:17;;;;;;;0.20;0.20;;;;;;;26.77;39.06;99865.00;4468383;32;33648;-85
2023/06/29 08:38:48;;;;;;;0.28;0.22;;;;;;;26.90;38.39;99867.19;4467367;31;33371;-85
2023/06/29 08:41:16;;;;;;;1.17;0.52;;;;;;;26.91;37.68;99869.72;4467736;31;32625;-85
2023/06/29 08:43:44;;;;;;;0.95;0.50;;;;;;;27.05;37.20;99860.06;4457413;31;33205;-85
2023/06/29 08:46:13;;;;;;;0.28;0.28;;;;;;;27.25;37.16;99864.16;4470150;31;33613;-85
2023/06/29 08:48:43;;;;;;;0.60;0.60;;;;;;;27.46;37.24;99857.31;4466184;31;33112;-85
2023/06/29 08:51:13;;;;;;;0.20;0.20;;;;;;;27.35;36.67;99860.38;4454248;31;34013;-85
2023/06/29 08:53:41;;;;;;;0.22;0.22;;;;;;;27.57;36.66;99856.91;4437958;31;33575;-85
2023/06/29 08:56:10;;;;;;;0.20;0.20;;;;;;;27.57;36.13;99857.75;4451442;32;33465;-85
2023/06/29 08:58:42;;;;;;;0.50;0.50;;;;;;;27.05;36.65;99862.78;4455308;32;33827;-84
2023/06/29 09:01:10;;;;;;;0.10;0.10;;;;;;;27.54;36.92;99860.00;4462885;31;33893;-85
2023/06/29 09:03:38;;;;;;;0.10;0.10;;;;;;;28.07;36.59;99850.28;4477825;31;33397;-84
2023/06/29 09:06:06;;;;;;;0.25;0.25;;;;;;;27.85;35.77;99851.06;4473731;31;33088;-85
2023/06/29 09:08:37;;;;;;;0.45;0.45;;;;;;;28.00;35.61;99850.13;4462982;31;32340;-85
2023/06/29 09:11:05;;;;;;;0.20;0.20;;;;;;;28.48;36.03;99855.44;4462371;31;34034;-85
2023/06/29 09:13:33;;;;;;;0.20;0.20;;;;;;;28.38;35.42;99854.84;4464689;31;32922;-85
2023/06/29 09:16:03;;;;;;;0.30;0.30;;;;;;;28.50;35.05;99839.84;4469087;32;31878;-85
2023/06/29 09:18:32;;;;;;;0.40;0.40;;;;;;;28.63;34.46;99842.78;4463422;31;32551;-86
2023/06/29 09:21:03;;;;;;;0.60;0.47;;;;;;;28.20;34.70;99849.66;4448621;31;33042;-85
2023/06/29 09:23:31;;;;;;;0.00;0.00;;;;;;;28.27;35.07;99851.50;4453619;31;33473;-85
2023/06/29 09:25:58;;;;;;;0.25;0.25;;;;;;;28.05;34.56;99841.44;4462515;32;32410;-87
2023/06/29 09:28:27;;;;;;;0.57;0.35;;;;;;;28.26;35.87;99844.38;4449409;31;32554;-87
2023/06/29 09:30:54;;;;;;;0.60;0.60;;;;;;;28.62;35.62;99841.06;4469749;32;33877;-87
2023/06/29 09:33:25;;;;;;;0.10;0.10;;;;;;;29.01;33.87;99845.53;4456443;32;32478;-87
2023/06/29 09:35:53;;;;;;;0.10;0.10;;;;;;;28.58;33.84;99847.91;4472061;31;33935;-88
2023/06/29 09:38:21;;;;;;;0.55;0.50;;;;;;;28.28;35.89;99839.59;4457789;31;33083;-87
2023/06/29 09:40:51;;;;;;;1.17;0.50;;;;;;;28.43;35.48;99836.13;4452368;31;33602;-87
2023/06/29 09:43:21;;;;;;;0.37;0.00;;;;;;;28.28;35.60;99847.75;4468530;31;33960;-87
2023/06/29 09:45:51;;;;;;;0.40;0.40;;;;;;;28.29;35.26;99838.56;4464873;31;33474;-86
2023/06/29 09:48:23;;;;;;;0.28;0.28;;;;;;;28.05;35.13;99844.16;4467681;31;33542;-87
2023/06/29 09:50:54;;;;;;;0.35;0.35;;;;;;;27.78;36.38;99845.53;4470968;31;33825;-87
2023/06/29 09:53:31;;;;;;;0.17;0.17;;;;;;;27.66;35.97;99844.16;4467618;31;34550;-87
2023/06/29 09:56:00;;;;;;;0.40;0.40;;;;;;;27.42;37.23;99850.53;4453202;31;32958;-87
2023/06/29 09:58:29;;;;;;;2.12;0.80;;;;;;;28.04;35.83;99840.59;4440330;32;32328;-87
2023/06/29 10:00:59;;;;;;;0.25;0.13;;;;;;;28.46;34.62;99830.34;4444110;31;32493;-86
2023/06/29 10:03:31;;;;;;;0.65;0.65;;;;;;;28.14;35.58;99840.37;4469002;31;34121;-87
2023/06/29 10:06:09;;;;;;;0.55;0.35;;;;;;;28.55;35.16;99837.41;4442116;31;33130;-87
2023/06/29 10:08:39;;;;;;;0.70;0.60;;;;;;;28.72;33.81;99841.69;4442231;31;35170;-87
2023/06/29 10:11:07;;;;;;;0.20;0.20;;;;;;;28.68;33.44;99837.66;4441745;32;32570;-87
2023/06/29 10:13:38;;;;;;;0.20;0.20;;;;;;;28.55;33.83;99842.84;4456028;31;33389;-88
2023/06/29 10:16:09;;;;;;;0.40;0.40;;;;;;;28.48;34.67;99837.28;4443001;31;34012;-88
2023/06/29 10:18:41;;;;;;;0.15;0.15;;;;;;;28.29;33.92;99838.56;4447714;31;32523;-85
2023/06/29 10:21:09;;;;;;;0.50;0.50;;;;;;;28.05;34.29;99836.03;4452198;31;32867;-86
2023/06/29 10:23:38;;;;;;;0.30;0.30;;;;;;;27.98;35.64;99835.91;4456023;31;33524;-86
2023/06/29 10:26:06;;;;;;;0.35;0.35;;;;;;;28.05;34.86;99834.16;4465743;31;33755;-85
2023/06/29 10:28:34;;;;;;;0.10;0.10;;;;;;;27.86;36.10;99831.88;4446825;31;32709;-85
2023/06/29 10:31:02;;;;;;;0.20;0.20;;;;;;;28.08;36.15;99836.50;4466123;32;33325;-85
2023/06/29 10:33:30;;;;;;;0.10;0.10;;;;;;;28.26;34.75;99828.09;4444697;31;33216;-85
2023/06/29 10:36:01;;;;;;;0.98;0.40;;;;;;;29.00;34.11;99820.19;4458675;31;33833;-87
2023/06/29 10:38:35;;;;;;;0.20;0.20;;;;;;;28.68;34.34;99825.94;4451156;31;32571;-86
2023/06/29 10:41:06;;;;;;;0.85;0.82;;;;;;;28.80;34.02;99833.44;4462460;31;34566;-85
2023/06/29 10:43:57;;;;;;;0.20;0.20;;;;;;;28.93;33.95;99823.81;4463308;32;34186;-85
2023/06/29 10:46:48;;;;;;;0.55;0.55;;;;;;;29.21;33.11;99827.63;4459225;31;34022;-85
2023/06/29 10:49:24;;;;;;;0.40;0.40;;;;;;;29.48;33.43;99825.28;4468531;31;33839;-85
2023/06/29 10:52:04;;;;;;;0.55;0.43;;;;;;;29.47;32.96;99812.72;4462648;31;35024;-84
2023/06/29 10:54:32;;;;;;;0.62;0.62;;;;;;;29.62;32.54;99819.00;4450144;31;35029;-84
2023/06/29 10:57:02;;;;;;;0.17;0.17;;;;;;;29.49;32.61;99816.94;4444783;31;33978;-85
2023/06/29 10:59:31;;;;;;;0.47;0.40;;;;;;;29.11;33.43;99809.91;4453049;31;33563;-85
2023/06/29 11:02:00;;;;;;;5.28;1.05;;;;;;;29.43;32.58;99814.12;4454641;31;34400;-84
2023/06/29 11:04:28;;;;;;;0.57;0.47;;;;;;;29.56;33.09;99814.34;4450061;32;36031;-85
2023/06/29 11:07:04;;;;;;;0.20;0.20;;;;;;;29.68;32.43;99820.16;4455140;31;33251;-84
2023/06/29 11:09:32;;;;;;;0.03;0.03;;;;;;;29.09;33.99;99824.53;4452149;31;33676;-84
2023/06/29 11:12:00;;;;;;;1.17;0.45;;;;;;;29.53;33.31;99811.94;4435807;31;33390;-85
2023/06/29 11:14:28;;;;;;;4.07;0.88;;;;;;;29.84;32.46;99812.59;4445136;32;33766;-84
2023/06/29 11:16:56;;;;;;;0.20;0.20;;;;;;;29.64;32.27;99805.22;4460397;31;34229;-84
2023/06/29 11:19:28;;;;;;;0.88;0.88;;;;;;;29.30;33.43;99804.75;4434237;31;32746;-84
2023/06/29 11:21:59;;;;;;;0.22;0.22;;;;;;;29.28;33.13;99806.81;4450226;31;34887;-84
2023/06/29 11:24:54;;;;;;;0.20;0.20;;;;;;;29.26;31.98;99808.03;4449055;31;33422;-85
2023/06/29 11:27:25;;;;;;;0.40;0.40;;;;;;;28.96;34.68;99812.59;4452538;31;32973;-84
2023/06/29 11:29:54;;;;;;;0.30;0.30;;;;;;;29.02;32.71;99809.16;4449487;32;32955;-85
2023/06/29 11:32:22;;;;;;;0.60;0.60;;;;;;;28.62;33.49;99813.91;4449208;31;33305;-84
2023/06/29 11:34:58;;;;;;;0.25;0.25;;;;;;;28.37;33.28;99809.72;4448540;32;34847;-85
2023/06/29 11:37:27;;;;;;;0.45;0.37;;;;;;;28.35;34.18;99806.34;4448065;31;33819;-84
2023/06/29 11:39:54;;;;;;;0.17;0.17;;;;;;;28.35;35.13;99803.63;4453091;31;31191;-84
2023/06/29 11:42:24;;;;;;;0.22;0.22;;;;;;;28.62;34.22;99794.87;4441577;31;32819;-85